Time;durP1;ratioP1;P1;durP2;ratioP2;P2;SDS_P1;SDS_P2;PMS_P1;PMS_P2;Temp;Humidity;BMP_temperature;BMP_pressure;BME280_temperature;BME280_humidity;BME280_pressure;Samples;Min_cycle;Max_cycle;Signal;HPM_P1;HPM_P2
2022/07/28 00:01:57;;;;;;;4.55;1.30;;;18.30;54.00;;;;;;5005393;28;20034;-65
2022/07/28 00:04:22;;;;;;;4.78;1.45;;;18.40;54.10;;;;;;5007791;28;20041;-65
2022/07/28 00:06:48;;;;;;;2.10;1.02;;;18.30;54.00;;;;;;5023131;28;20033;-65
2022/07/28 00:09:13;;;;;;;4.03;1.30;;;18.30;53.90;;;;;;5008866;28;20039;-65
2022/07/28 00:11:39;;;;;;;3.00;1.20;;;18.30;53.80;;;;;;5016283;28;20033;-65
2022/07/28 00:14:05;;;;;;;5.50;1.45;;;18.30;53.90;;;;;;5015052;28;20026;-65
2022/07/28 00:16:31;;;;;;;2.22;0.98;;;18.30;53.90;;;;;;5026264;28;20057;-64
2022/07/28 00:18:56;;;;;;;5.97;1.65;;;18.30;53.90;;;;;;5012193;28;20410;-65
2022/07/28 00:21:23;;;;;;;2.25;1.00;;;18.30;53.90;;;;;;5006596;28;20030;-65
2022/07/28 00:23:49;;;;;;;3.60;1.38;;;18.30;53.90;;;;;;5024513;28;20108;-65
2022/07/28 00:26:14;;;;;;;3.90;1.05;;;18.30;53.90;;;;;;5026780;28;20469;-65
2022/07/28 00:28:40;;;;;;;4.45;1.50;;;18.30;53.90;;;;;;5012604;28;20064;-65
2022/07/28 00:31:06;;;;;;;2.65;0.88;;;18.30;54.00;;;;;;5022015;28;20120;-65
2022/07/28 00:33:31;;;;;;;3.03;1.08;;;18.20;54.10;;;;;;5022238;28;20108;-65
2022/07/28 00:35:57;;;;;;;4.25;1.15;;;18.20;54.20;;;;;;5022916;28;20022;-65
2022/07/28 00:38:22;;;;;;;3.95;1.10;;;18.20;54.30;;;;;;5026816;28;20113;-65
2022/07/28 00:43:32;;;;;;;5.18;1.20;;;18.20;54.40;;;;;;5012625;28;20113;-64
2022/07/28 00:45:58;;;;;;;3.25;1.13;;;18.20;54.50;;;;;;5008678;28;20088;-68
2022/07/28 00:48:24;;;;;;;3.25;1.10;;;18.10;54.50;;;;;;5019333;28;20375;-66
2022/07/28 00:50:50;;;;;;;3.42;1.27;;;18.10;54.50;;;;;;5016544;28;20037;-65
2022/07/28 00:53:16;;;;;;;3.00;1.10;;;18.10;54.60;;;;;;5017920;28;20339;-65
2022/07/28 00:55:42;;;;;;;4.18;1.30;;;18.10;54.60;;;;;;5016338;28;20044;-65
2022/07/28 00:58:08;;;;;;;3.58;1.30;;;18.10;54.70;;;;;;5029108;28;20036;-65
2022/07/28 01:00:34;;;;;;;3.28;0.95;;;18.10;54.70;;;;;;5010903;28;20027;-64
2022/07/28 01:03:00;;;;;;;3.47;1.20;;;18.10;54.70;;;;;;5041221;28;20045;-65
2022/07/28 01:05:55;;;;;;;3.00;1.05;;;18.10;54.80;;;;;;5029164;28;20382;-65
2022/07/28 01:08:39;;;;;;;5.40;1.40;;;18.10;54.80;;;;;;5010569;28;20049;-65
2022/07/28 01:11:19;;;;;;;2.83;1.08;;;18.00;54.90;;;;;;5027823;28;20034;-65
2022/07/28 01:13:52;;;;;;;5.40;1.40;;;18.00;55.00;;;;;;5031605;28;20027;-64
2022/07/28 01:16:17;;;;;;;3.25;1.45;;;18.00;55.00;;;;;;5014752;28;20044;-65
2022/07/28 01:19:28;;;;;;;5.55;1.60;;;18.00;55.10;;;;;;5016187;28;20420;-65
2022/07/28 01:21:56;;;;;;;7.37;1.40;;;18.00;55.10;;;;;;5018061;28;20037;-64
2022/07/28 01:24:37;;;;;;;4.03;1.27;;;17.90;55.20;;;;;;5015170;28;20113;-65
2022/07/28 01:27:08;;;;;;;4.18;1.25;;;17.90;55.30;;;;;;5013994;28;20352;-65
2022/07/28 01:30:01;;;;;;;3.70;1.20;;;17.90;55.40;;;;;;5003510;28;20109;-65
2022/07/28 01:32:37;;;;;;;3.60;1.33;;;17.90;55.40;;;;;;5015751;28;20124;-65
2022/07/28 01:35:17;;;;;;;5.10;1.30;;;17.80;55.50;;;;;;5019426;28;20109;-65
2022/07/28 01:37:48;;;;;;;4.25;1.23;;;17.80;55.50;;;;;;5023128;28;20034;-65
2022/07/28 01:40:18;;;;;;;3.30;1.30;;;17.80;55.60;;;;;;5001720;28;20112;-65
2022/07/28 01:42:50;;;;;;;2.58;0.93;;;17.80;55.70;;;;;;5025178;28;20037;-65
2022/07/28 01:45:17;;;;;;;3.63;1.20;;;17.70;55.70;;;;;;5017115;28;20044;-65
2022/07/28 01:47:44;;;;;;;4.00;1.00;;;17.70;55.70;;;;;;5026428;28;20025;-65
2022/07/28 01:50:12;;;;;;;3.22;1.20;;;17.70;55.80;;;;;;5007506;28;20030;-65
2022/07/28 01:52:40;;;;;;;3.67;1.27;;;17.60;55.90;;;;;;5019038;28;20064;-65
2022/07/28 01:55:07;;;;;;;4.78;1.40;;;17.60;56.00;;;;;;5035793;28;20026;-65
2022/07/28 01:57:34;;;;;;;3.10;1.13;;;17.60;56.10;;;;;;5030001;28;20095;-65
2022/07/28 02:00:01;;;;;;;3.10;1.38;;;17.60;56.20;;;;;;5024171;28;20017;-65
2022/07/28 02:02:29;;;;;;;3.45;1.20;;;17.50;56.60;;;;;;5016299;28;20038;-64
2022/07/28 02:04:57;;;;;;;4.88;1.02;;;17.50;56.20;;;;;;5034222;28;20109;-64
2022/07/28 02:07:25;;;;;;;3.92;1.15;;;17.50;56.30;;;;;;5029688;28;20034;-65
2022/07/28 02:09:52;;;;;;;4.15;1.50;;;17.50;56.30;;;;;;5021078;28;20049;-65
2022/07/28 02:12:19;;;;;;;2.83;1.17;;;17.50;56.40;;;;;;5011808;28;20153;-64
2022/07/28 02:14:48;;;;;;;4.75;1.33;;;17.50;56.40;;;;;;5029299;28;20366;-65
2022/07/28 02:17:17;;;;;;;5.22;1.52;;;17.40;56.40;;;;;;5003874;28;20037;-65
2022/07/28 02:19:45;;;;;;;4.72;1.50;;;17.40;56.50;;;;;;5013873;28;20049;-65
2022/07/28 02:22:11;;;;;;;3.33;1.05;;;17.40;56.50;;;;;;5011405;28;20048;-65
2022/07/28 02:24:37;;;;;;;5.30;1.35;;;17.30;56.60;;;;;;5017567;28;20041;-65
2022/07/28 02:27:18;;;;;;;4.20;1.20;;;17.30;56.60;;;;;;5019666;28;20025;-65
2022/07/28 02:29:48;;;;;;;2.92;1.20;;;17.30;56.70;;;;;;5014848;28;20025;-65
2022/07/28 02:32:30;;;;;;;6.07;1.60;;;17.30;56.80;;;;;;5010841;28;20065;-65
2022/07/28 02:35:06;;;;;;;3.60;1.13;;;17.30;56.90;;;;;;5014269;28;20025;-64
2022/07/28 02:37:37;;;;;;;3.38;1.30;;;17.30;57.00;;;;;;5001161;28;20022;-65
2022/07/28 02:40:08;;;;;;;3.35;1.25;;;17.30;57.00;;;;;;5014084;28;20029;-65
2022/07/28 02:42:35;;;;;;;2.85;1.40;;;17.20;57.00;;;;;;5015454;28;20025;-64
2022/07/28 02:45:04;;;;;;;4.13;1.52;;;17.20;57.00;;;;;;5003340;28;20033;-65
2022/07/28 02:47:35;;;;;;;4.65;1.40;;;17.20;57.20;;;;;;5007677;28;20037;-65
2022/07/28 02:50:02;;;;;;;2.90;1.10;;;17.20;57.20;;;;;;5015804;28;20037;-65
2022/07/28 02:52:29;;;;;;;3.92;1.40;;;17.20;57.20;;;;;;5015030;28;20021;-65
2022/07/28 02:54:57;;;;;;;3.70;1.30;;;17.20;57.30;;;;;;5002376;28;20442;-65
2022/07/28 02:57:25;;;;;;;4.40;1.30;;;17.20;57.30;;;;;;5016567;28;20029;-65
2022/07/28 02:59:52;;;;;;;4.03;1.15;;;17.10;57.30;;;;;;5008572;28;20120;-65
2022/07/28 03:02:20;;;;;;;3.40;1.40;;;17.10;57.40;;;;;;5021887;28;20095;-65
2022/07/28 03:04:55;;;;;;;3.50;1.30;;;17.10;57.40;;;;;;5029172;28;20026;-65
2022/07/28 03:07:21;;;;;;;3.15;1.23;;;17.10;57.60;;;;;;5046224;28;20124;-64
2022/07/28 03:09:48;;;;;;;5.28;1.33;;;17.10;57.40;;;;;;5019176;28;20129;-65
2022/07/28 03:12:14;;;;;;;3.85;1.33;;;17.00;57.40;;;;;;5017063;28;20029;-65
2022/07/28 03:14:40;;;;;;;4.60;1.50;;;17.00;57.50;;;;;;5023048;28;20033;-65
2022/07/28 03:17:07;;;;;;;4.18;1.50;;;17.00;57.60;;;;;;5026695;28;20117;-65
2022/07/28 03:19:33;;;;;;;5.30;1.40;;;17.00;57.60;;;;;;5019815;28;20033;-65
2022/07/28 03:21:59;;;;;;;4.30;1.33;;;17.00;57.60;;;;;;5005907;28;20064;-64
2022/07/28 03:24:28;;;;;;;3.75;1.30;;;16.90;57.50;;;;;;5011272;28;20506;-65
2022/07/28 03:27:20;;;;;;;6.20;1.70;;;16.90;57.50;;;;;;5020159;28;20116;-64
2022/07/28 03:29:51;;;;;;;5.18;1.55;;;17.00;57.50;;;;;;5006902;28;20029;-65
2022/07/28 03:32:18;;;;;;;;;;;16.90;57.50;;;;;;5006867;28;20083;-64
2022/07/28 03:34:44;;;;;;;3.20;1.38;;;16.90;57.50;;;;;;5031798;28;19963;-65
2022/07/28 03:37:15;;;;;;;5.03;1.05;;;16.80;57.40;;;;;;5007394;28;20025;-65
2022/07/28 03:39:47;;;;;;;3.22;1.17;;;16.90;58.10;;;;;;5021738;28;20167;-65
2022/07/28 03:42:18;;;;;;;4.38;1.40;;;16.90;57.60;;;;;;5012818;28;20042;-64
2022/07/28 03:44:47;;;;;;;2.55;1.23;;;16.90;57.60;;;;;;5037472;28;20033;-65
2022/07/28 03:47:13;;;;;;;4.07;1.33;;;16.90;57.60;;;;;;5017164;28;20040;-64
2022/07/28 03:49:39;;;;;;;4.82;1.65;;;16.80;57.60;;;;;;5017313;28;20037;-64
2022/07/28 03:52:05;;;;;;;3.83;1.30;;;16.90;57.60;;;;;;5019925;28;20026;-65
2022/07/28 03:54:31;;;;;;;4.28;1.20;;;16.90;57.60;;;;;;5020743;28;20017;-65
2022/07/28 03:56:56;;;;;;;3.67;1.45;;;16.90;57.60;;;;;;5024108;28;20036;-64
2022/07/28 03:59:23;;;;;;;4.20;1.38;;;16.80;58.20;;;;;;5024103;28;20025;-65
2022/07/28 04:01:49;;;;;;;4.45;1.38;;;16.80;57.80;;;;;;5037715;28;20335;-64
2022/07/28 04:04:15;;;;;;;3.60;1.75;;;16.90;57.90;;;;;;5034925;28;20124;-64
2022/07/28 04:06:40;;;;;;;4.57;1.30;;;16.80;57.80;;;;;;5027231;28;20034;-64
2022/07/28 04:09:06;;;;;;;4.75;1.70;;;16.80;57.70;;;;;;5014888;28;20030;-64
2022/07/28 04:11:31;;;;;;;3.38;1.23;;;16.90;57.80;;;;;;5011886;28;20025;-65
2022/07/28 04:13:57;;;;;;;2.80;1.20;;;16.90;57.80;;;;;;5021223;28;20366;-64
2022/07/28 04:16:23;;;;;;;4.40;1.60;;;16.80;57.70;;;;;;5025421;28;20022;-65
2022/07/28 04:18:49;;;;;;;4.72;1.30;;;16.80;57.80;;;;;;5021616;28;20443;-64
2022/07/28 04:21:15;;;;;;;5.47;1.80;;;16.80;57.80;;;;;;5027010;28;20049;-65
2022/07/28 04:23:40;;;;;;;4.43;1.85;;;16.90;57.90;;;;;;5010837;28;20046;-65
2022/07/28 04:26:06;;;;;;;8.50;2.05;;;16.80;57.90;;;;;;5009190;28;20033;-65
2022/07/28 04:28:32;;;;;;;5.35;1.73;;;16.80;58.00;;;;;;5009236;28;20072;-65
2022/07/28 04:30:57;;;;;;;4.57;1.63;;;16.80;57.90;;;;;;5017162;28;20038;-68
2022/07/28 04:33:23;;;;;;;6.05;1.70;;;16.80;57.90;;;;;;5014209;28;20103;-68
2022/07/28 04:35:51;;;;;;;4.22;1.23;;;16.90;58.00;;;;;;5020228;28;20023;-68
2022/07/28 04:38:19;;;;;;;4.30;1.38;;;16.80;58.00;;;;;;5027815;28;20036;-68
2022/07/28 04:40:46;;;;;;;4.90;1.40;;;16.90;58.10;;;;;;5014305;28;20052;-68
2022/07/28 04:43:12;;;;;;;4.72;1.50;;;16.90;58.10;;;;;;5023668;28;20043;-68
2022/07/28 04:45:38;;;;;;;7.80;1.90;;;16.90;58.10;;;;;;5027828;28;20034;-68
2022/07/28 04:48:04;;;;;;;5.47;1.70;;;16.90;58.00;;;;;;5031123;28;20064;-68
2022/07/28 04:50:31;;;;;;;3.20;1.35;;;17.00;58.10;;;;;;5031320;28;20399;-69
2022/07/28 04:52:57;;;;;;;3.63;1.40;;;17.00;58.10;;;;;;5030305;28;20017;-68
2022/07/28 04:55:24;;;;;;;4.00;1.60;;;17.00;58.10;;;;;;5022642;28;20049;-68
2022/07/28 04:57:49;;;;;;;4.32;1.33;;;17.00;58.20;;;;;;5015292;28;20030;-68
2022/07/28 05:00:15;;;;;;;4.32;1.50;;;17.00;58.30;;;;;;5027995;28;20071;-68
2022/07/28 05:02:43;;;;;;;5.38;1.70;;;17.00;58.20;;;;;;5015379;28;20754;-67
2022/07/28 05:05:09;;;;;;;4.57;1.60;;;17.00;58.30;;;;;;5018138;28;20113;-68
2022/07/28 05:07:38;;;;;;;3.67;1.20;;;17.00;58.30;;;;;;4989794;28;20053;-68
2022/07/28 05:10:06;;;;;;;6.07;1.42;;;17.10;58.90;;;;;;5007388;28;20101;-68
2022/07/28 05:12:32;;;;;;;3.40;1.38;;;17.10;58.20;;;;;;5012678;28;20127;-68
2022/07/28 05:14:58;;;;;;;5.18;1.35;;;17.20;58.10;;;;;;5036177;28;20029;-68
2022/07/28 05:17:24;;;;;;;5.00;1.40;;;17.20;58.10;;;;;;5014880;28;20204;-68
2022/07/28 05:19:50;;;;;;;3.72;1.50;;;17.30;58.10;;;;;;5027179;28;20052;-68
2022/07/28 05:22:16;;;;;;;4.45;1.63;;;17.30;58.20;;;;;;5017098;28;20419;-68
2022/07/28 05:24:42;;;;;;;2.63;1.20;;;17.30;58.10;;;;;;5031643;28;20037;-68
2022/07/28 05:27:08;;;;;;;6.38;1.55;;;17.40;58.10;;;;;;5025594;28;20029;-68
2022/07/28 05:29:37;;;;;;;4.93;1.23;;;17.40;57.90;;;;;;5013135;28;20516;-68
2022/07/28 05:32:04;;;;;;;4.28;1.30;;;17.40;57.90;;;;;;5008775;28;20128;-68
2022/07/28 05:34:30;;;;;;;3.88;1.40;;;17.40;57.90;;;;;;5027554;28;20029;-69
2022/07/28 05:36:56;;;;;;;6.30;1.65;;;17.50;57.90;;;;;;5023061;28;20466;-68
2022/07/28 05:39:23;;;;;;;5.65;1.55;;;17.50;57.70;;;;;;5023021;28;20026;-68
2022/07/28 05:41:48;;;;;;;6.28;1.73;;;17.60;57.60;;;;;;5017158;28;20033;-68
2022/07/28 05:44:14;;;;;;;4.65;1.67;;;17.60;57.60;;;;;;5024875;28;20084;-68
2022/07/28 05:46:40;;;;;;;4.30;1.25;;;17.70;57.50;;;;;;5032768;28;20446;-68
2022/07/28 05:49:05;;;;;;;4.10;1.52;;;17.80;57.40;;;;;;5021622;28;20026;-68
2022/07/28 05:51:31;;;;;;;3.42;1.30;;;17.90;57.30;;;;;;5028952;28;20035;-68
2022/07/28 05:53:57;;;;;;;3.83;1.40;;;18.00;57.30;;;;;;5006669;28;20030;-68
2022/07/28 05:56:22;;;;;;;5.55;1.55;;;18.10;57.20;;;;;;5017098;28;20026;-70
2022/07/28 05:58:48;;;;;;;3.88;1.30;;;18.10;57.10;;;;;;5013847;28;20034;-69
2022/07/28 06:01:14;;;;;;;5.32;1.33;;;18.20;56.90;;;;;;4996789;28;20030;-69
2022/07/28 06:03:39;;;;;;;4.57;1.45;;;18.30;56.80;;;;;;5012459;28;20029;-70
2022/07/28 06:06:05;;;;;;;6.05;1.58;;;18.40;56.70;;;;;;4998604;28;20030;-70
2022/07/28 06:08:35;;;;;;;3.67;1.30;;;18.50;56.50;;;;;;5017548;28;20460;-71
2022/07/28 06:11:07;;;;;;;5.68;1.10;;;18.70;56.40;;;;;;5006645;28;20050;-68
2022/07/28 06:13:34;;;;;;;3.40;1.30;;;18.80;56.10;;;;;;5000761;28;20022;-70
2022/07/28 06:16:00;;;;;;;4.80;1.40;;;19.00;55.90;;;;;;5000635;28;20031;-70
2022/07/28 06:18:25;;;;;;;3.38;0.90;;;19.00;55.80;;;;;;5010906;28;20017;-69
2022/07/28 06:20:51;;;;;;;4.05;1.30;;;19.10;55.60;;;;;;5012645;28;20029;-69
2022/07/28 06:23:19;;;;;;;3.13;0.95;;;19.10;55.60;;;;;;5005100;28;20352;-70
2022/07/28 06:25:45;;;;;;;4.72;1.50;;;19.20;55.50;;;;;;4997465;28;20058;-72
2022/07/28 06:28:11;;;;;;;3.25;1.20;;;19.30;55.40;;;;;;5007379;28;20093;-70
2022/07/28 06:30:37;;;;;;;2.15;0.95;;;19.50;55.30;;;;;;5001181;28;20029;-69
2022/07/28 06:33:04;;;;;;;4.53;1.23;;;19.60;55.00;;;;;;5004995;28;20057;-70
2022/07/28 06:35:31;;;;;;;4.93;1.40;;;19.60;54.70;;;;;;4999553;28;20029;-70
2022/07/28 06:37:57;;;;;;;3.38;1.33;;;19.70;54.50;;;;;;5000215;28;20116;-69
2022/07/28 06:40:23;;;;;;;2.83;1.08;;;19.80;54.30;;;;;;4997671;28;20105;-69
2022/07/28 06:42:49;;;;;;;4.90;1.35;;;20.10;54.10;;;;;;5000639;28;20030;-70
2022/07/28 06:45:15;;;;;;;2.50;1.08;;;20.20;53.70;;;;;;4997902;28;20419;-69
2022/07/28 06:47:41;;;;;;;3.30;1.00;;;20.40;53.30;;;;;;4999779;28;20531;-70
2022/07/28 06:50:07;;;;;;;3.97;0.93;;;20.80;52.90;;;;;;5004853;28;20106;-70
2022/07/28 06:52:34;;;;;;;2.40;0.88;;;21.00;52.70;;;;;;5001151;28;20110;-70
2022/07/28 06:54:59;;;;;;;3.20;1.17;;;21.10;52.30;;;;;;5001242;28;20033;-71
2022/07/28 06:57:26;;;;;;;3.83;1.20;;;21.10;52.10;;;;;;5011984;28;20018;-70
2022/07/28 06:59:52;;;;;;;5.35;1.40;;;21.00;52.00;;;;;;5009247;28;20413;-70
2022/07/28 07:02:19;;;;;;;4.80;1.33;;;21.00;52.30;;;;;;5004998;28;20424;-70
2022/07/28 07:04:44;;;;;;;4.65;1.17;;;20.90;52.20;;;;;;5011837;28;20030;-70
2022/07/28 07:07:10;;;;;;;4.15;1.30;;;20.90;52.10;;;;;;4999431;28;20419;-70
2022/07/28 07:09:36;;;;;;;4.45;1.17;;;20.90;52.10;;;;;;5002382;28;20029;-70
2022/07/28 07:12:02;;;;;;;3.13;1.02;;;20.80;52.00;;;;;;5005639;28;20073;-70
2022/07/28 07:14:28;;;;;;;3.13;1.20;;;20.70;52.00;;;;;;5006920;28;20030;-70
2022/07/28 07:16:53;;;;;;;6.25;1.48;;;20.70;52.00;;;;;;5002589;28;20113;-70
2022/07/28 07:19:20;;;;;;;3.38;1.17;;;20.70;52.10;;;;;;4998019;28;20109;-70
2022/07/28 07:21:49;;;;;;;4.30;1.25;;;20.60;51.80;;;;;;5001039;28;20030;-70
2022/07/28 07:24:15;;;;;;;4.47;1.42;;;20.70;51.70;;;;;;5005321;28;20037;-69
2022/07/28 07:26:41;;;;;;;4.35;1.10;;;20.70;51.70;;;;;;4998843;28;20056;-69
2022/07/28 07:29:07;;;;;;;4.85;1.55;;;20.80;51.60;;;;;;5004557;28;20112;-69
2022/07/28 07:31:35;;;;;;;4.10;1.30;;;20.90;51.30;;;;;;5007361;28;20077;-69
2022/07/28 07:34:01;;;;;;;3.08;1.20;;;21.00;51.10;;;;;;5009625;28;20132;-70
2022/07/28 07:36:27;;;;;;;5.28;1.20;;;21.10;50.80;;;;;;5005748;28;20122;-70
2022/07/28 07:38:52;;;;;;;3.83;1.17;;;21.30;50.60;;;;;;5002324;28;20034;-70
2022/07/28 07:41:18;;;;;;;2.40;1.05;;;21.40;50.20;;;;;;4978922;28;20165;-70
2022/07/28 07:43:47;;;;;;;4.07;1.02;;;21.50;49.70;;;;;;5002286;28;21267;-69
2022/07/28 07:46:13;;;;;;;4.65;1.10;;;21.50;49.30;;;;;;5008172;28;20034;-71
2022/07/28 07:48:38;;;;;;;2.53;0.80;;;21.50;49.20;;;;;;5009919;28;20112;-70
2022/07/28 07:51:05;;;;;;;4.03;1.35;;;21.60;49.10;;;;;;5002014;28;20045;-70
2022/07/28 07:53:30;;;;;;;3.42;0.93;;;21.70;49.00;;;;;;5001264;28;20030;-70
2022/07/28 07:55:56;;;;;;;4.15;1.38;;;21.80;48.70;;;;;;5020078;28;20293;-70
2022/07/28 07:58:22;;;;;;;4.45;1.13;;;21.80;48.50;;;;;;5020772;28;20169;-72
2022/07/28 08:00:48;;;;;;;2.42;0.90;;;21.90;48.30;;;;;;5009988;28;20030;-70
2022/07/28 08:03:15;;;;;;;4.40;1.30;;;22.10;47.80;;;;;;5009736;28;20494;-71
2022/07/28 08:05:40;;;;;;;2.88;1.00;;;22.30;47.20;;;;;;5005816;28;20023;-70
2022/07/28 08:08:06;;;;;;;2.53;1.17;;;22.50;46.70;;;;;;4996059;28;20034;-71
2022/07/28 08:10:33;;;;;;;3.72;0.80;;;22.50;46.30;;;;;;4995121;28;20050;-71
2022/07/28 08:12:59;;;;;;;1.67;0.90;;;22.60;46.10;;;;;;4994103;28;20023;-71
2022/07/28 08:15:24;;;;;;;4.85;1.35;;;22.60;45.80;;;;;;5005629;28;20514;-72
2022/07/28 08:17:50;;;;;;;3.67;1.00;;;22.60;45.60;;;;;;5004379;28;20030;-71
2022/07/28 08:20:16;;;;;;;3.33;0.80;;;22.60;45.50;;;;;;4983619;28;20032;-71
2022/07/28 08:22:52;;;;;;;2.63;1.00;;;22.80;45.10;;;;;;5001933;28;20038;-71
2022/07/28 08:25:19;;;;;;;3.15;0.90;;;22.80;44.60;;;;;;5005569;28;20033;-70
2022/07/28 08:27:45;;;;;;;3.15;1.10;;;22.90;44.60;;;;;;5010297;28;20072;-71
2022/07/28 08:30:13;;;;;;;2.38;0.82;;;23.00;45.10;;;;;;5009676;28;20026;-71
2022/07/28 08:32:40;;;;;;;5.00;1.00;;;23.10;44.30;;;;;;5005480;28;20034;-72
2022/07/28 08:35:07;;;;;;;1.65;0.80;;;23.50;44.00;;;;;;5007660;28;20054;-72
2022/07/28 08:37:32;;;;;;;3.30;1.15;;;23.70;43.70;;;;;;5008718;28;20066;-71
2022/07/28 08:39:58;;;;;;;3.80;0.90;;;23.90;43.50;;;;;;5006943;28;20085;-71
2022/07/28 08:42:49;;;;;;;2.90;1.10;;;24.10;43.30;;;;;;5009663;28;20117;-71
2022/07/28 08:45:16;;;;;;;3.28;0.90;;;24.30;42.90;;;;;;5005150;28;20459;-71
2022/07/28 08:47:42;;;;;;;3.13;1.08;;;24.50;42.50;;;;;;5009155;28;20053;-73
2022/07/28 08:50:11;;;;;;;3.65;1.10;;;24.70;42.00;;;;;;5004180;28;20058;-72
2022/07/28 08:52:39;;;;;;;2.25;0.90;;;24.80;41.60;;;;;;5015625;28;20034;-71
2022/07/28 08:55:07;;;;;;;4.97;1.02;;;24.90;41.40;;;;;;5009663;28;20561;-72
2022/07/28 08:57:42;;;;;;;3.22;0.98;;;25.00;41.20;;;;;;5002499;28;20025;-71
2022/07/28 09:00:09;;;;;;;1.92;0.80;;;25.10;41.10;;;;;;5009423;28;20065;-72
2022/07/28 09:02:41;;;;;;;3.83;1.33;;;25.30;41.10;;;;;;5012158;28;20348;-72
2022/07/28 09:05:08;;;;;;;3.05;1.00;;;25.40;40.80;;;;;;5001305;28;20479;-72
2022/07/28 09:07:36;;;;;;;2.45;0.93;;;25.40;40.60;;;;;;5006897;28;20443;-70
2022/07/28 09:10:04;;;;;;;2.35;1.00;;;25.50;40.60;;;;;;5005031;28;20049;-71
2022/07/28 09:12:33;;;;;;;4.32;0.98;;;25.70;40.20;;;;;;5006210;28;20091;-71
2022/07/28 09:15:01;;;;;;;2.75;0.90;;;25.60;40.00;;;;;;5009937;28;20026;-70
2022/07/28 09:17:27;;;;;;;2.75;0.80;;;25.50;40.10;;;;;;5008750;28;20057;-69
2022/07/28 09:19:53;;;;;;;2.30;0.90;;;25.50;40.10;;;;;;5010527;28;20025;-68
2022/07/28 09:22:18;;;;;;;5.30;1.45;;;25.40;40.00;;;;;;5006255;28;20026;-69
2022/07/28 09:24:45;;;;;;;3.90;1.10;;;25.50;39.90;;;;;;5006622;28;20087;-69
2022/07/28 09:27:12;;;;;;;3.50;1.20;;;25.70;39.90;;;;;;4996237;28;20139;-71
2022/07/28 09:29:40;;;;;;;3.88;0.90;;;25.50;39.50;;;;;;5011333;28;20037;-68
2022/07/28 09:32:07;;;;;;;3.90;0.80;;;25.20;39.60;;;;;;5003914;28;20030;-69
2022/07/28 09:34:43;;;;;;;2.08;0.80;;;24.80;39.90;;;;;;5007547;28;20054;-69
2022/07/28 09:37:19;;;;;;;1.85;1.00;;;24.80;40.20;;;;;;5009180;28;20037;-69
2022/07/28 09:39:45;;;;;;;2.45;1.02;;;24.90;40.00;;;;;;5015132;28;20018;-68
2022/07/28 09:42:11;;;;;;;3.78;1.00;;;25.20;39.80;;;;;;5006620;28;20354;-68
2022/07/28 09:44:37;;;;;;;2.42;0.82;;;25.50;39.40;;;;;;5008213;28;20030;-69
2022/07/28 09:47:32;;;;;;;1.92;0.93;;;25.70;39.10;;;;;;5008622;28;20089;-68
2022/07/28 09:49:58;;;;;;;2.20;0.98;;;25.90;38.60;;;;;;5009596;28;20069;-68
2022/07/28 09:52:33;;;;;;;3.20;1.33;;;26.00;38.70;;;;;;5005922;28;20493;-70
2022/07/28 09:55:09;;;;;;;1.60;0.82;;;26.20;38.60;;;;;;5010549;28;20439;-68
2022/07/28 09:57:37;;;;;;;3.53;0.88;;;26.40;38.30;;;;;;5002829;28;20045;-68
2022/07/28 10:00:07;;;;;;;3.10;0.90;;;26.50;38.30;;;;;;5002604;28;20387;-67
2022/07/28 10:02:37;;;;;;;1.90;0.95;;;26.70;38.00;;;;;;5005512;28;20030;-68
2022/07/28 10:05:05;;;;;;;2.38;0.82;;;26.80;37.70;;;;;;5002619;28;20042;-70
2022/07/28 10:07:33;;;;;;;1.63;0.80;;;26.90;37.60;;;;;;5007615;28;20088;-70
2022/07/28 10:10:06;;;;;;;2.15;0.88;;;26.80;37.60;;;;;;4997664;28;20359;-70
2022/07/28 10:12:34;;;;;;;1.92;0.75;;;27.00;37.50;;;;;;5004974;28;20038;-69
2022/07/28 10:17:57;;;;;;;3.70;0.95;;;27.10;37.30;;;;;;5004469;28;21515;-70
2022/07/28 10:20:23;;;;;;;2.97;0.90;;;27.20;37.40;;;;;;5001832;28;20026;-70
2022/07/28 10:22:51;;;;;;;2.25;0.70;;;27.20;37.00;;;;;;5002859;28;20030;-69
2022/07/28 10:25:21;;;;;;;1.05;0.68;;;27.30;36.90;;;;;;4994447;28;20034;-70
2022/07/28 10:27:48;;;;;;;2.78;0.80;;;27.40;36.50;;;;;;5012900;28;20030;-70
2022/07/28 10:30:14;;;;;;;2.35;0.77;;;27.40;36.50;;;;;;5000988;28;20026;-70
2022/07/28 10:32:43;;;;;;;3.03;1.00;;;27.40;36.50;;;;;;5000838;28;20034;-69
2022/07/28 10:35:12;;;;;;;3.78;1.05;;;27.30;36.60;;;;;;5001421;28;20440;-69
2022/07/28 10:37:56;;;;;;;2.95;1.05;;;27.20;36.60;;;;;;5001706;28;20038;-69
2022/07/28 10:40:26;;;;;;;1.55;0.80;;;27.30;36.30;;;;;;4995852;28;20113;-70
2022/07/28 10:42:55;;;;;;;3.53;0.85;;;27.40;36.00;;;;;;5001236;28;20038;-70
2022/07/28 10:45:21;;;;;;;2.10;0.85;;;27.40;36.00;;;;;;4999081;28;20169;-70
2022/07/28 10:47:47;;;;;;;3.45;1.10;;;27.40;36.10;;;;;;5003387;28;20105;-69
2022/07/28 10:50:14;;;;;;;1.88;0.90;;;27.30;36.10;;;;;;5005233;28;20038;-70
2022/07/28 10:52:40;;;;;;;3.22;1.13;;;27.30;36.10;;;;;;5007815;28;20336;-70
2022/07/28 10:55:28;;;;;;;2.95;1.08;;;27.40;36.00;;;;;;5003436;28;20443;-70
2022/07/28 10:58:18;;;;;;;2.13;0.75;;;27.40;35.80;;;;;;4998544;28;20034;-70
2022/07/28 11:00:49;;;;;;;1.33;0.68;;;27.50;35.80;;;;;;5013574;28;20025;-70
2022/07/28 11:03:41;;;;;;;2.42;0.95;;;27.40;35.90;;;;;;5004759;28;20030;-70
2022/07/28 11:06:32;;;;;;;3.17;0.98;;;27.50;35.70;;;;;;5006325;28;20086;-70
2022/07/28 11:09:17;;;;;;;3.63;1.02;;;27.60;36.40;;;;;;5001426;28;20026;-70
2022/07/28 11:11:45;;;;;;;1.00;0.63;;;27.60;35.70;;;;;;5009742;28;20103;-70
2022/07/28 11:14:28;;;;;;;1.83;0.73;;;27.70;35.70;;;;;;5032713;28;20132;-70
2022/07/28 11:17:00;;;;;;;1.50;0.65;;;27.70;35.20;;;;;;5022631;28;20117;-69
2022/07/28 11:19:44;;;;;;;1.55;0.73;;;27.70;35.40;;;;;;5003253;28;20023;-69
2022/07/28 11:24:57;;;;;;;2.60;0.75;;;27.70;35.30;;;;;;5011339;28;20089;-70
2022/07/28 11:27:40;;;;;;;;;;;27.70;35.20;;;;;;5008011;28;20023;-71
2022/07/28 11:30:07;;;;;;;1.70;0.80;;;27.70;35.50;;;;;;5006760;28;19910;-69
2022/07/28 11:32:52;;;;;;;1.65;0.60;;;27.80;35.60;;;;;;5006938;28;20423;-70
2022/07/28 11:35:19;;;;;;;1.08;0.63;;;27.80;35.40;;;;;;5008933;28;20476;-70
2022/07/28 11:38:00;;;;;;;4.80;1.10;;;27.80;35.30;;;;;;5010956;28;20433;-69
2022/07/28 11:40:37;;;;;;;2.90;0.82;;;27.80;35.40;;;;;;5007358;28;20037;-68
2022/07/28 11:43:25;;;;;;;2.03;0.70;;;27.80;34.80;;;;;;5020856;28;20080;-68
2022/07/28 11:45:51;;;;;;;1.75;0.80;;;27.80;34.70;;;;;;5032555;28;20040;-68
2022/07/28 11:48:20;;;;;;;2.28;0.82;;;27.80;34.80;;;;;;5034125;28;20033;-68
2022/07/28 11:51:04;;;;;;;1.02;0.60;;;27.70;35.00;;;;;;5033217;28;20022;-68
2022/07/28 11:53:52;;;;;;;1.67;0.70;;;27.60;35.30;;;;;;5033929;28;20029;-68
2022/07/28 11:56:28;;;;;;;1.92;0.63;;;27.50;35.30;;;;;;5025809;28;20029;-68
2022/07/28 11:58:58;;;;;;;2.40;0.95;;;27.40;35.30;;;;;;5034430;28;20028;-68
2022/07/28 12:01:23;;;;;;;3.08;1.05;;;27.40;35.30;;;;;;5032834;28;20029;-68
2022/07/28 12:03:51;;;;;;;2.10;0.90;;;27.30;35.40;;;;;;5025475;28;20068;-68
2022/07/28 12:06:19;;;;;;;2.80;1.02;;;27.20;35.40;;;;;;5035088;28;20037;-68
2022/07/28 12:08:49;;;;;;;2.45;0.98;;;27.20;35.50;;;;;;5037984;28;20068;-68
2022/07/28 12:11:14;;;;;;;2.15;0.82;;;27.20;35.60;;;;;;5032087;28;20407;-68
2022/07/28 12:13:40;;;;;;;4.10;1.20;;;27.20;35.60;;;;;;5033909;28;20068;-69
2022/07/28 12:16:06;;;;;;;2.22;0.90;;;27.20;35.70;;;;;;5020108;28;20033;-68
2022/07/28 12:18:31;;;;;;;2.70;0.90;;;27.20;35.60;;;;;;5037870;28;20025;-68
2022/07/28 12:20:57;;;;;;;3.10;1.10;;;27.20;35.60;;;;;;5036271;28;20041;-68
2022/07/28 12:23:32;;;;;;;2.38;0.90;;;27.10;35.50;;;;;;5030567;28;20024;-68
2022/07/28 12:26:00;;;;;;;3.15;1.00;;;27.10;35.30;;;;;;5022605;28;20359;-68
2022/07/28 12:28:28;;;;;;;3.13;1.00;;;26.90;35.40;;;;;;5019168;28;20045;-70
2022/07/28 12:31:08;;;;;;;3.55;1.08;;;26.80;35.60;;;;;;5018175;28;20041;-69
2022/07/28 12:33:33;;;;;;;2.65;1.17;;;26.70;35.60;;;;;;5025305;28;20056;-70
2022/07/28 12:35:59;;;;;;;4.10;1.20;;;26.50;35.60;;;;;;5027691;28;20057;-70
2022/07/28 12:38:28;;;;;;;1.33;0.77;;;26.40;35.90;;;;;;5015895;28;20037;-69
2022/07/28 12:40:53;;;;;;;3.53;1.02;;;26.30;36.20;;;;;;5011280;28;20033;-70
2022/07/28 12:43:26;;;;;;;2.47;0.75;;;26.40;36.60;;;;;;5025066;28;20059;-69
2022/07/28 12:45:52;;;;;;;2.20;0.82;;;26.30;36.50;;;;;;5014011;28;20196;-70
2022/07/28 12:48:18;;;;;;;1.83;0.80;;;26.30;36.50;;;;;;5009606;28;20117;-70
2022/07/28 12:50:45;;;;;;;2.47;1.00;;;26.30;36.50;;;;;;5022452;28;20482;-70
2022/07/28 12:53:11;;;;;;;2.28;0.88;;;26.50;36.60;;;;;;5013230;28;20033;-69
2022/07/28 12:55:39;;;;;;;4.03;1.05;;;26.50;36.40;;;;;;5012947;28;20080;-70
2022/07/28 12:58:05;;;;;;;5.05;1.23;;;26.50;36.50;;;;;;5014985;28;20041;-70
2022/07/28 13:00:34;;;;;;;3.00;0.90;;;26.40;36.60;;;;;;5017869;28;20103;-69
2022/07/28 13:03:19;;;;;;;2.90;1.10;;;26.40;36.40;;;;;;5027753;28;20033;-69
2022/07/28 13:06:03;;;;;;;3.53;1.20;;;26.40;36.40;;;;;;5017179;28;20040;-70